Time;durP1;ratioP1;P1;durP2;ratioP2;P2;SDS_P1;SDS_P2;PMS_P1;PMS_P2;Temp;Humidity;BMP_temperature;BMP_pressure;BME280_temperature;BME280_humidity;BME280_pressure;Samples;Min_cycle;Max_cycle;Signal;HPM_P1;HPM_P2
2022/09/24 00:02:44;;;;;;;6.65;2.78;;;;;;;9.63;53.89;99979.66;7604414;32;40808;-73
2022/09/24 00:07:00;;;;;;;3.78;2.67;;;;;;;9.29;55.17;99983.44;7604223;32;37902;-73
2022/09/24 00:11:18;;;;;;;3.87;2.47;;;;;;;9.71;53.74;99985.44;7603303;32;37165;-71
2022/09/24 00:15:39;;;;;;;3.60;2.58;;;;;;;9.50;54.26;99976.28;7581845;33;39317;-73
2022/09/24 00:19:55;;;;;;;4.82;2.58;;;;;;;9.85;53.36;99982.22;7581754;33;39575;-73
2022/09/24 00:28:51;;;;;;;6.60;2.42;;;;;;;9.50;54.42;99975.47;7581719;33;37076;-73
2022/09/24 00:33:07;;;;;;;3.83;2.50;;;;;;;9.71;53.56;99971.81;7581560;33;39057;-73
2022/09/24 00:37:23;;;;;;;3.12;2.40;;;;;;;9.54;54.12;99971.16;7581331;33;40760;-73
2022/09/24 00:41:45;;;;;;;6.30;2.47;;;;;;;9.55;54.11;99967.34;7592589;32;37797;-72
2022/09/24 00:46:21;;;;;;;3.30;2.50;;;;;;;9.68;53.60;99961.44;7607340;32;37223;-73
2022/09/24 00:50:37;;;;;;;4.25;2.33;;;;;;;9.42;54.31;99956.88;7607398;32;39090;-73
2022/09/24 00:54:54;;;;;;;5.80;2.72;;;;;;;9.50;54.03;99959.12;7607202;32;40555;-73
2022/09/24 00:59:16;;;;;;;4.53;2.60;;;;;;;9.44;54.53;99952.84;7618144;32;38644;-74
2022/09/24 01:03:39;;;;;;;3.67;2.70;;;;;;;9.29;55.16;99953.50;7607197;32;37182;-73
2022/09/24 01:07:56;;;;;;;4.28;2.80;;;;;;;9.58;54.62;99948.56;7617626;32;39048;-73
2022/09/24 01:12:39;;;;;;;6.87;2.50;;;;;;;9.68;53.75;99945.13;7590687;32;40850;-73
2022/09/24 01:17:14;;;;;;;3.30;2.40;;;;;;;9.50;54.08;99953.69;7555257;33;37778;-73
2022/09/24 01:21:45;;;;;;;4.30;2.80;;;;;;;9.44;54.51;99939.22;7554627;33;37412;-73
2022/09/24 01:26:22;;;;;;;4.22;2.70;;;;;;;9.42;54.48;99941.41;7555350;33;39530;-73
2022/09/24 01:30:40;;;;;;;3.35;2.80;;;;;;;9.54;54.05;99933.03;7555348;33;41030;-73
2022/09/24 01:35:08;;;;;;;4.53;2.60;;;;;;;9.41;54.47;99939.75;7554971;32;36776;-72
2022/09/24 01:39:25;;;;;;;2.97;2.60;;;;;;;9.08;55.31;99927.22;7578079;32;38004;-73
2022/09/24 01:43:42;;;;;;;3.47;2.50;;;;;;;9.43;54.42;99925.87;7591663;32;39450;-73
2022/09/24 01:48:01;;;;;;;5.85;2.92;;;;;;;9.43;54.62;99931.31;7580728;33;39973;-73
2022/09/24 01:52:22;;;;;;;5.25;2.83;;;;;;;9.29;54.85;99930.94;7591628;32;37969;-73
2022/09/24 01:56:45;;;;;;;5.57;2.60;;;;;;;9.27;55.49;99924.94;7591197;32;37001;-73
2022/09/24 02:01:13;;;;;;;5.00;3.12;;;;;;;9.34;55.04;99929.06;7601401;32;39567;-73
2022/09/24 02:05:57;;;;;;;4.10;2.72;;;;;;;9.10;55.84;99927.78;7606436;32;40856;-73
2022/09/24 02:10:16;;;;;;;5.00;2.92;;;;;;;9.26;56.44;99931.44;7609458;32;37504;-73
2022/09/24 02:14:35;;;;;;;5.78;3.25;;;;;;;9.10;56.46;99927.78;7606372;32;38273;-73
2022/09/24 02:18:56;;;;;;;4.43;3.12;;;;;;;8.77;58.53;99940.53;7617173;32;39126;-73
2022/09/24 02:23:14;;;;;;;5.22;3.12;;;;;;;8.83;57.73;99924.00;7606214;32;40765;-73
2022/09/24 02:27:30;;;;;;;5.80;3.62;;;;;;;8.84;57.91;99930.25;7617086;32;37858;-73
2022/09/24 02:31:51;;;;;;;4.78;3.15;;;;;;;8.73;59.36;99942.13;7580535;32;37919;-73
2022/09/24 02:36:08;;;;;;;3.95;2.92;;;;;;;9.09;57.80;99934.28;7591272;32;39920;-73
2022/09/24 02:40:24;;;;;;;6.40;3.20;;;;;;;8.85;57.97;99929.19;7599295;32;40028;-73
2022/09/24 02:44:40;;;;;;;5.15;3.30;;;;;;;8.57;58.80;99941.97;7605620;32;37861;-73
2022/09/24 02:48:56;;;;;;;6.25;2.92;;;;;;;8.97;57.64;99929.84;7605918;32;38030;-73
2022/09/24 02:53:12;;;;;;;5.40;3.22;;;;;;;9.06;57.25;99932.13;7604515;32;40005;-73
2022/09/24 02:57:28;;;;;;;7.47;3.40;;;;;;;9.19;62.13;99937.09;7601877;32;39877;-73
2022/09/24 03:01:45;;;;;;;4.97;3.25;;;;;;;9.10;59.03;99933.22;7579695;32;38633;-73
2022/09/24 03:06:01;;;;;;;5.90;3.47;;;;;;;9.24;56.90;99931.72;7580244;33;37056;-73
2022/09/24 03:10:17;;;;;;;4.95;3.08;;;;;;;9.01;56.95;99932.87;7591583;32;40143;-72
2022/09/24 03:14:33;;;;;;;3.83;3.15;;;;;;;9.07;56.74;99925.59;7589902;32;40938;-73
2022/09/24 03:18:49;;;;;;;5.75;3.12;;;;;;;8.94;57.11;99915.97;7590416;32;37877;-73
2022/09/24 03:23:06;;;;;;;7.05;3.67;;;;;;;8.70;57.80;99912.75;7579534;33;37810;-73
2022/09/24 03:27:22;;;;;;;5.53;3.25;;;;;;;8.36;60.29;99926.47;7579354;33;39482;-73
2022/09/24 03:31:38;;;;;;;4.43;2.90;;;;;;;8.73;58.15;99912.22;7579279;33;40812;-73
2022/09/24 03:36:00;;;;;;;3.97;3.17;;;;;;;8.94;57.04;99907.81;7579598;32;38733;-73
2022/09/24 03:40:17;;;;;;;6.93;3.50;;;;;;;8.50;58.51;99902.47;7579258;33;37892;-72
2022/09/24 03:44:33;;;;;;;6.10;3.70;;;;;;;8.52;58.39;99901.16;7580450;33;39080;-73
2022/09/24 03:48:49;;;;;;;7.12;3.75;;;;;;;8.56;59.57;99902.25;7582235;33;40753;-73
2022/09/24 03:53:05;;;;;;;5.50;3.65;;;;;;;8.82;58.93;99891.66;7591201;32;37490;-73
2022/09/24 03:57:21;;;;;;;5.85;3.78;;;;;;;8.55;58.97;99895.19;7607812;32;37558;-73
2022/09/24 04:01:37;;;;;;;5.30;3.22;;;;;;;8.49;58.96;99889.97;7607951;32;39768;-73
2022/09/24 04:05:53;;;;;;;4.93;3.30;;;;;;;8.54;58.45;99904.41;7607764;32;40538;-73
2022/09/24 04:10:09;;;;;;;9.38;3.87;;;;;;;8.76;57.70;99889.94;7607684;32;37482;-73
2022/09/24 04:14:25;;;;;;;8.45;3.67;;;;;;;8.54;58.74;99882.69;7607775;32;38147;-73
2022/09/24 04:18:41;;;;;;;7.55;4.28;;;;;;;8.73;58.46;99874.19;7607660;32;40180;-73
2022/09/24 04:22:58;;;;;;;6.75;4.05;;;;;;;8.56;59.32;99888.69;7603544;32;41575;-73
2022/09/24 04:27:14;;;;;;;7.82;4.68;;;;;;;8.80;59.78;99888.38;7606738;32;37780;-73
2022/09/24 04:31:32;;;;;;;6.20;4.03;;;;;;;8.77;60.17;99880.72;7607526;32;38269;-73
2022/09/24 04:35:48;;;;;;;7.93;4.28;;;;;;;8.79;61.18;99876.66;7605072;32;40214;-73
2022/09/24 04:40:08;;;;;;;6.57;3.90;;;;;;;8.22;63.49;99888.00;7581218;33;40112;-72
2022/09/24 04:44:26;;;;;;;10.35;4.53;;;;;;;8.30;63.07;99892.19;7581459;33;38700;-73
2022/09/24 04:48:42;;;;;;;6.40;3.97;;;;;;;8.59;62.17;99890.88;7581248;33;37130;-73
2022/09/24 04:52:59;;;;;;;7.57;4.05;;;;;;;8.47;62.93;99892.94;7589188;32;39365;-73
2022/09/24 04:57:15;;;;;;;6.18;4.28;;;;;;;8.43;63.09;99897.22;7606197;32;39997;-73
2022/09/24 05:01:31;;;;;;;7.28;4.60;;;;;;;8.65;62.24;99895.28;7607107;32;38597;-72
2022/09/24 05:05:56;;;;;;;8.50;4.90;;;;;;;8.81;62.03;99884.56;7607264;32;36802;-73
2022/09/24 05:10:12;;;;;;;8.30;4.82;;;;;;;8.79;61.92;99879.37;7606124;32;39255;-73
2022/09/24 05:14:29;;;;;;;14.25;5.22;;;;;;;8.73;62.25;99874.19;7581137;33;39950;-73
2022/09/24 05:18:45;;;;;;;10.52;5.15;;;;;;;9.19;60.88;99872.66;7580833;33;38660;-73
2022/09/24 05:23:00;;;;;;;11.05;5.85;;;;;;;9.01;61.07;99879.31;7591862;32;37974;-74
2022/09/24 05:27:17;;;;;;;11.70;6.07;;;;;;;9.39;60.41;99882.84;7606555;32;39712;-74
2022/09/24 05:31:33;;;;;;;9.50;5.32;;;;;;;9.56;60.38;99877.25;7602344;32;39684;-73
2022/09/24 05:35:56;;;;;;;9.05;5.45;;;;;;;9.38;61.83;99875.78;7582127;32;37595;-74
2022/09/24 05:44:47;;;;;;;10.82;5.07;;;;;;;9.56;62.11;99876.44;7587570;32;39925;-76
2022/09/24 05:49:07;;;;;;;9.38;4.53;;;;;;;9.63;62.05;99874.31;7592248;32;41026;-74
2022/09/24 05:53:23;;;;;;;10.48;4.90;;;;;;;9.76;61.86;99870.28;7580713;33;37553;-74
2022/09/24 05:57:39;;;;;;;7.72;4.85;;;;;;;9.54;63.24;99879.44;7604120;32;37832;-74
2022/09/24 06:01:55;;;;;;;7.28;4.43;;;;;;;9.80;62.59;99882.28;7606259;32;40084;-74
2022/09/24 06:06:11;;;;;;;8.00;4.85;;;;;;;9.91;62.19;99885.88;7591836;32;40694;-72
2022/09/24 06:10:27;;;;;;;8.60;4.87;;;;;;;9.87;63.30;99893.75;7580537;33;37522;-74
2022/09/24 06:14:43;;;;;;;8.50;4.80;;;;;;;9.87;63.37;99893.75;7580476;33;36817;-73
2022/09/24 06:18:59;;;;;;;12.02;5.30;;;;;;;10.30;61.63;99880.06;7580286;33;39827;-73
2022/09/24 06:23:16;;;;;;;8.45;5.30;;;;;;;9.87;63.96;99884.78;7580324;33;40126;-73
2022/09/24 06:27:32;;;;;;;11.98;5.10;;;;;;;9.05;67.03;99895.09;7580286;33;38681;-75
2022/09/24 06:31:48;;;;;;;12.60;6.10;;;;;;;10.49;68.23;99885.88;7580294;33;37147;-76
2022/09/24 06:36:04;;;;;;;9.23;4.85;;;;;;;10.37;65.03;99891.56;7580008;33;39320;-78
2022/09/24 06:40:23;;;;;;;12.05;6.45;;;;;;;10.82;62.23;99891.91;7579980;33;40851;-76
2022/09/24 06:44:39;;;;;;;14.57;7.97;;;;;;;10.83;62.23;99897.09;7580090;33;37766;-74
2022/09/24 06:48:55;;;;;;;11.88;6.95;;;;;;;10.84;62.59;99889.75;7580046;33;37749;-74
2022/09/24 06:53:11;;;;;;;11.93;6.55;;;;;;;11.34;60.86;99887.28;7579956;33;39078;-74
2022/09/24 06:57:27;;;;;;;15.50;6.37;;;;;;;11.28;61.74;99895.47;7579920;33;39819;-74
2022/09/24 07:01:43;;;;;;;10.02;6.05;;;;;;;10.83;62.85;99894.37;7579689;33;37931;-74
2022/09/24 07:06:02;;;;;;;12.80;6.75;;;;;;;11.37;60.89;99886.75;7579833;33;37419;-74
2022/09/24 07:10:18;;;;;;;15.63;6.40;;;;;;;11.88;60.50;99881.16;7579741;33;41061;-74
2022/09/24 07:14:34;;;;;;;9.48;5.72;;;;;;;12.06;61.25;99892.63;7579495;33;39923;-74
2022/09/24 07:18:50;;;;;;;10.73;6.22;;;;;;;11.88;59.90;99902.19;7578327;33;38009;-75
2022/09/24 07:23:08;;;;;;;11.45;6.85;;;;;;;11.64;61.33;99910.97;7579426;33;37919;-75
2022/09/24 07:27:24;;;;;;;11.68;6.47;;;;;;;11.73;60.69;99916.69;7579417;33;39413;-73
2022/09/24 07:31:41;;;;;;;15.63;6.82;;;;;;;12.46;58.79;99915.41;7579238;33;40153;-73
2022/09/24 07:35:57;;;;;;;18.85;8.27;;;;;;;12.98;58.09;99908.50;7579017;33;38009;-74
2022/09/24 07:40:13;;;;;;;16.50;8.55;;;;;;;13.36;56.28;99908.78;7578899;33;37495;-74
2022/09/24 07:44:29;;;;;;;15.32;8.68;;;;;;;13.61;57.34;99890.50;7578902;33;39056;-74
2022/09/24 07:48:47;;;;;;;16.92;9.45;;;;;;;13.79;57.97;99897.94;7578757;33;39717;-76
2022/09/24 07:53:03;;;;;;;14.90;8.85;;;;;;;14.12;53.47;99900.88;7578782;33;38087;-77
2022/09/24 07:57:19;;;;;;;22.15;8.68;;;;;;;14.52;52.23;99917.94;7578696;33;37647;-77
2022/09/24 08:01:35;;;;;;;16.30;8.35;;;;;;;14.69;53.64;99911.13;7578738;33;39495;-77
2022/09/24 08:05:56;;;;;;;19.87;9.70;;;;;;;15.32;51.75;99907.16;7578454;33;41277;-76
2022/09/24 08:10:11;;;;;;;16.02;8.10;;;;;;;15.31;49.13;99900.81;7578210;33;38777;-74
2022/09/24 08:14:28;;;;;;;11.82;6.85;;;;;;;15.55;49.04;99895.19;7577978;33;37340;-77
2022/09/24 08:18:44;;;;;;;12.77;6.87;;;;;;;15.99;48.08;99893.03;7578095;33;39300;-77
2022/09/24 08:23:05;;;;;;;15.27;8.07;;;;;;;16.46;46.87;99887.37;7577963;33;39928;-77
2022/09/24 08:27:22;;;;;;;13.85;7.40;;;;;;;15.23;50.58;99889.72;7577779;33;37979;-74
2022/09/24 08:31:40;;;;;;;16.37;6.95;;;;;;;15.89;48.44;99883.03;7580512;33;37566;-74
2022/09/24 08:36:04;;;;;;;12.23;6.37;;;;;;;15.81;50.50;99874.69;7580993;33;39421;-70
2022/09/24 08:40:23;;;;;;;12.60;6.20;;;;;;;16.80;46.00;99877.78;7591808;32;40083;-71
2022/09/24 08:49:44;;;;;;;9.35;5.75;;;;;;;16.93;44.28;99865.94;7590118;32;36836;-74
2022/09/24 08:54:06;;;;;;;12.07;5.80;;;;;;;17.43;44.33;99860.28;7591311;32;39407;-74
2022/09/24 08:58:41;;;;;;;10.68;4.80;;;;;;;17.74;43.61;99858.66;7581057;33;39930;-74
2022/09/24 09:03:12;;;;;;;12.55;5.32;;;;;;;18.09;42.28;99850.50;7581128;33;37631;-75
2022/09/24 09:07:41;;;;;;;10.40;5.07;;;;;;;18.22;41.59;99841.31;7589395;32;37981;-74
2022/09/24 09:12:02;;;;;;;8.15;4.60;;;;;;;18.38;41.15;99828.69;7587927;32;39054;-75
2022/09/24 09:16:28;;;;;;;8.95;3.62;;;;;;;18.83;39.91;99840.56;7588386;32;40533;-74
2022/09/24 09:20:46;;;;;;;8.70;4.68;;;;;;;18.82;39.47;99844.44;7588918;32;37897;-75
2022/09/24 09:25:18;;;;;;;8.50;4.90;;;;;;;18.74;38.94;99843.28;7581042;33;36125;-75
2022/09/24 09:29:35;;;;;;;7.65;5.00;;;;;;;19.07;38.29;99843.59;7590719;32;39520;-74
2022/09/24 09:33:55;;;;;;;9.48;4.80;;;;;;;18.96;38.81;99839.56;7580914;33;39645;-75
2022/09/24 09:38:11;;;;;;;10.32;5.40;;;;;;;19.41;38.73;99836.38;7580624;33;38052;-75
2022/09/24 09:42:34;;;;;;;13.30;6.53;;;;;;;19.86;38.45;99833.13;7580147;33;37195;-74
2022/09/24 09:47:36;;;;;;;14.50;7.18;;;;;;;20.30;39.85;99829.28;7580905;33;39522;-74
2022/09/24 09:51:55;;;;;;;11.40;5.53;;;;;;;20.54;38.61;99829.47;7580645;33;39892;-74
2022/09/24 09:56:11;;;;;;;9.82;4.22;;;;;;;20.26;36.28;99832.75;7591434;32;37382;-74
2022/09/24 10:00:33;;;;;;;9.80;4.60;;;;;;;20.11;34.78;99827.81;7580578;33;38107;-74
2022/09/24 10:04:54;;;;;;;10.18;5.00;;;;;;;20.51;33.79;99819.06;7591647;32;39445;-74
2022/09/24 10:09:19;;;;;;;9.10;4.47;;;;;;;20.21;36.02;99821.88;7580433;33;40765;-74
2022/09/24 10:13:35;;;;;;;9.90;4.82;;;;;;;20.26;35.04;99831.94;7580463;33;37937;-74
2022/09/24 10:17:54;;;;;;;9.98;4.55;;;;;;;19.83;37.10;99820.00;7580384;33;38019;-74
2022/09/24 10:22:25;;;;;;;10.50;4.43;;;;;;;19.89;35.29;99824.16;7591250;32;40132;-73
2022/09/24 10:26:43;;;;;;;11.52;4.43;;;;;;;20.18;34.36;99830.84;7580378;33;40635;-73
2022/09/24 10:31:09;;;;;;;6.20;3.45;;;;;;;20.68;34.32;99818.13;7590979;32;37878;-73
2022/09/24 10:35:34;;;;;;;9.10;4.05;;;;;;;20.43;32.78;99826.25;7590393;32;36789;-73
2022/09/24 10:40:01;;;;;;;9.68;3.40;;;;;;;20.70;34.08;99815.03;7580123;33;40162;-72
2022/09/24 10:44:19;;;;;;;6.93;2.80;;;;;;;21.12;31.81;99810.19;7580194;33;39991;-73
2022/09/24 10:48:41;;;;;;;7.15;3.90;;;;;;;21.10;31.58;99806.16;7580036;33;38790;-73
2022/09/24 10:53:05;;;;;;;7.37;3.33;;;;;;;20.82;30.98;99812.31;7580080;33;37368;-73
2022/09/24 10:57:40;;;;;;;8.27;4.03;;;;;;;20.88;31.68;99802.63;7590721;32;40084;-73
2022/09/24 11:02:12;;;;;;;8.60;3.90;;;;;;;20.96;30.31;99798.97;7579803;33;39985;-73
2022/09/24 11:06:47;;;;;;;7.68;3.78;;;;;;;21.83;29.80;99793.56;7579451;33;38694;-73
2022/09/24 11:11:26;;;;;;;10.48;3.97;;;;;;;20.66;31.39;99795.47;7579794;33;37791;-74
2022/09/24 11:16:01;;;;;;;9.60;3.67;;;;;;;21.66;29.16;99787.09;7556613;32;39213;-73
2022/09/24 11:20:38;;;;;;;6.93;2.62;;;;;;;21.86;30.72;99773.44;7579549;33;39620;-72
2022/09/24 11:25:09;;;;;;;5.85;2.42;;;;;;;21.49;29.27;99787.28;7579218;33;37676;-73
2022/09/24 11:29:33;;;;;;;3.87;2.50;;;;;;;21.54;29.27;99784.31;7579303;33;37392;-73
2022/09/24 11:34:16;;;;;;;7.93;2.60;;;;;;;21.94;28.23;99783.62;7579370;33;39592;-73
2022/09/24 11:38:32;;;;;;;5.40;2.25;;;;;;;22.24;28.25;99775.00;7578952;33;40005;-73
2022/09/24 11:43:26;;;;;;;4.40;2.53;;;;;;;21.16;30.55;99777.06;7579013;33;38719;-74
2022/09/24 11:48:04;;;;;;;6.62;3.25;;;;;;;21.43;30.02;99772.03;7578735;33;37168;-73
2022/09/24 11:52:46;;;;;;;6.70;2.92;;;;;;;21.49;30.80;99768.72;7578822;33;39291;-73
2022/09/24 11:57:10;;;;;;;7.00;2.70;;;;;;;21.62;29.67;99760.41;7589299;32;39910;-72
2022/09/24 12:01:36;;;;;;;4.00;2.25;;;;;;;21.73;30.13;99748.50;7588870;32;38648;-73
2022/09/24 12:06:09;;;;;;;5.32;2.87;;;;;;;22.01;29.84;99755.25;7590513;32;37894;-73
2022/09/24 12:10:34;;;;;;;5.25;2.72;;;;;;;22.15;29.83;99758.47;7581854;33;39427;-73
2022/09/24 12:15:05;;;;;;;6.78;2.70;;;;;;;21.45;30.35;99755.84;7592688;32;40964;-73
2022/09/24 12:19:49;;;;;;;3.72;2.35;;;;;;;22.24;29.04;99738.91;7581803;33;38008;-73
2022/09/24 12:24:25;;;;;;;5.95;2.47;;;;;;;22.58;28.57;99726.44;7581696;33;36737;-74
2022/09/24 12:33:58;;;;;;;2.87;1.70;;;;;;;23.53;27.70;99706.25;7581299;33;40469;-74
2022/09/24 12:38:32;;;;;;;14.98;3.25;;;;;;;23.33;27.18;99710.13;7562512;32;38680;-74
2022/09/24 12:42:53;;;;;;;3.67;2.20;;;;;;;22.72;28.08;99722.44;7590881;32;37320;-74
2022/09/24 12:47:30;;;;;;;3.25;1.85;;;;;;;22.72;28.16;99717.66;7591972;32;40096;-73
2022/09/24 12:51:47;;;;;;;5.37;2.00;;;;;;;22.62;28.15;99715.41;7581101;33;39920;-74
2022/09/24 12:56:04;;;;;;;7.55;2.67;;;;;;;22.03;28.31;99705.78;7580917;33;38711;-75
2022/09/24 13:00:36;;;;;;;8.88;2.10;;;;;;;21.52;30.36;99706.97;7581007;33;37283;-73
2022/09/24 13:05:01;;;;;;;7.55;2.78;;;;;;;21.57;29.93;99700.41;7581092;33;40112;-73
2022/09/24 13:09:33;;;;;;;6.20;2.40;;;;;;;20.81;31.98;99699.88;7581161;33;39999;-70
2022/09/24 13:14:20;;;;;;;6.95;3.10;;;;;;;21.23;30.11;99694.16;7581324;32;37964;-74
2022/09/24 13:18:36;;;;;;;6.35;2.80;;;;;;;20.60;30.83;99700.69;7595039;32;36894;-73
2022/09/24 13:22:57;;;;;;;16.75;4.97;;;;;;;20.63;30.90;99693.72;7606453;32;40085;-73
2022/09/24 13:27:31;;;;;;;8.55;3.65;;;;;;;20.79;30.80;99691.88;7592463;32;38897;-73
2022/09/24 13:31:53;;;;;;;8.30;3.15;;;;;;;20.62;31.26;99697.63;7580636;32;38251;-74
2022/09/24 13:36:14;;;;;;;;;;;;;;;20.95;31.46;99680.94;7587866;32;37096;-73
2022/09/24 13:40:35;;;;;;;8.40;3.08;;;;;;;21.23;30.73;99671.16;7606531;32;39393;-74
2022/09/24 13:45:18;;;;;;;3.83;1.98;;;;;;;21.11;30.91;99674.72;7606663;32;40022;-74
2022/09/24 13:49:36;;;;;;;9.30;3.58;;;;;;;21.17;30.80;99681.66;7549778;33;37896;-73
2022/09/24 13:53:57;;;;;;;6.93;2.60;;;;;;;21.32;30.36;99675.44;7565711;33;36848;-73
2022/09/24 13:58:37;;;;;;;8.10;3.00;;;;;;;21.40;30.62;99676.47;7574946;32;39394;-73
2022/09/24 14:03:31;;;;;;;7.35;2.22;;;;;;;20.99;30.73;99672.78;7589279;32;40163;-73
2022/09/24 14:08:16;;;;;;;2.78;2.00;;;;;;;20.99;30.94;99668.03;7586992;32;38637;-73
2022/09/24 14:12:32;;;;;;;7.45;2.83;;;;;;;20.77;31.84;99665.69;7605283;32;37049;-73
2022/09/24 14:16:48;;;;;;;4.93;2.50;;;;;;;21.01;31.19;99667.69;7595500;32;39264;-72
2022/09/24 14:21:11;;;;;;;4.82;2.12;;;;;;;20.97;31.30;99670.34;7583708;32;40694;-73
2022/09/24 14:25:32;;;;;;;5.62;2.37;;;;;;;20.81;31.18;99661.88;7580091;33;37998;-74
2022/09/24 14:29:57;;;;;;;3.10;2.20;;;;;;;20.62;31.82;99654.09;7580010;33;38022;-73
2022/09/24 14:34:26;;;;;;;7.32;2.35;;;;;;;20.59;31.99;99656.72;7579877;33;39735;-69
2022/09/24 14:38:55;;;;;;;4.65;2.10;;;;;;;20.45;32.68;99654.25;7576484;33;39998;-74
2022/09/24 14:43:15;;;;;;;4.47;2.17;;;;;;;20.54;32.28;99641.16;7580110;33;38233;-73
2022/09/24 14:47:34;;;;;;;6.78;2.53;;;;;;;21.09;31.39;99638.25;7579991;33;36787;-73
2022/09/24 14:52:02;;;;;;;5.28;2.30;;;;;;;20.64;31.52;99645.47;7580061;33;39473;-74
2022/09/24 14:56:31;;;;;;;4.53;2.17;;;;;;;20.89;31.53;99645.53;7579771;33;40030;-73
2022/09/24 15:00:54;;;;;;;5.03;2.33;;;;;;;20.43;31.93;99651.03;7579582;33;37617;-73
2022/09/24 15:05:10;;;;;;;3.80;1.83;;;;;;;20.50;32.11;99656.81;7579511;33;36999;-72
2022/09/24 15:09:28;;;;;;;5.22;1.95;;;;;;;20.00;32.48;99655.00;7591609;32;40132;-73
2022/09/24 15:13:44;;;;;;;5.03;2.00;;;;;;;20.20;32.36;99656.94;7605458;32;38899;-72
2022/09/24 15:18:00;;;;;;;2.65;1.75;;;;;;;19.84;33.01;99663.94;7616346;32;38663;-73
2022/09/24 15:22:16;;;;;;;8.88;2.30;;;;;;;19.47;33.77;99663.66;7602883;32;37117;-73
2022/09/24 15:26:34;;;;;;;5.05;2.22;;;;;;;19.28;34.60;99657.75;7580940;32;40067;-73
2022/09/24 15:30:50;;;;;;;4.03;2.10;;;;;;;19.85;33.69;99661.97;7601363;32;40755;-73
2022/09/24 15:35:08;;;;;;;6.15;2.30;;;;;;;19.80;34.09;99659.41;7601680;32;37533;-73
2022/09/24 15:39:26;;;;;;;7.22;2.30;;;;;;;19.97;33.53;99652.91;7602110;32;36951;-72
2022/09/24 15:43:42;;;;;;;2.58;1.95;;;;;;;19.69;34.30;99653.44;7615478;32;40490;-73
2022/09/24 15:47:58;;;;;;;8.30;3.30;;;;;;;19.86;33.59;99650.56;7604874;32;39875;-73
2022/09/24 15:52:25;;;;;;;7.60;2.87;;;;;;;19.35;34.38;99660.00;7596482;32;38542;-73
2022/09/24 15:56:41;;;;;;;5.47;2.90;;;;;;;19.51;33.95;99644.47;7578997;33;37018;-73
2022/09/24 16:00:59;;;;;;;3.78;1.98;;;;;;;19.32;34.65;99651.22;7578676;33;39377;-73
2022/09/24 16:05:15;;;;;;;7.65;3.00;;;;;;;19.18;34.70;99641.53;7578865;33;40940;-73
2022/09/24 16:09:32;;;;;;;4.50;2.37;;;;;;;19.20;35.39;99644.81;7577920;32;37882;-73
2022/09/24 16:13:49;;;;;;;4.90;2.47;;;;;;;19.36;34.63;99625.69;7578664;32;37254;-73
2022/09/24 16:18:08;;;;;;;9.70;2.95;;;;;;;19.06;35.53;99645.84;7593014;32;40234;-73
2022/09/24 16:22:24;;;;;;;5.68;2.72;;;;;;;19.42;35.05;99641.75;7604349;32;40067;-73
2022/09/24 16:26:40;;;;;;;5.05;2.58;;;;;;;18.74;36.46;99645.28;7614808;32;37899;-73
2022/09/24 16:30:57;;;;;;;9.50;3.50;;;;;;;19.07;36.03;99639.16;7603970;32;37187;-73
2022/09/24 16:35:13;;;;;;;5.05;2.40;;;;;;;18.74;36.62;99639.75;7603584;32;39424;-73
2022/09/24 16:39:30;;;;;;;4.28;2.37;;;;;;;18.79;36.67;99635.19;7603391;32;40533;-73
2022/09/24 16:43:46;;;;;;;5.55;3.03;;;;;;;18.72;36.72;99636.50;7581467;32;37947;-72
2022/09/24 16:48:02;;;;;;;6.82;2.90;;;;;;;18.72;36.82;99639.28;7577552;33;37121;-73
2022/09/24 16:52:18;;;;;;;9.43;3.70;;;;;;;18.64;37.24;99642.87;7592221;32;39366;-72
2022/09/24 16:56:36;;;;;;;10.45;3.67;;;;;;;18.75;36.95;99641.38;7606869;32;40775;-73
2022/09/24 17:00:52;;;;;;;6.18;3.67;;;;;;;18.48;37.77;99641.78;7607031;32;37891;-73
2022/09/24 17:05:08;;;;;;;10.30;4.20;;;;;;;18.61;37.71;99637.19;7605427;32;36999;-72
2022/09/24 17:14:00;;;;;;;7.30;3.12;;;;;;;17.87;39.79;99634.41;7581325;33;39650;-73
2022/09/24 17:18:16;;;;;;;7.55;2.87;;;;;;;17.88;39.65;99641.50;7581096;33;38743;-73
2022/09/24 17:22:32;;;;;;;5.40;2.92;;;;;;;18.22;38.79;99641.84;7592143;32;38049;-73
2022/09/24 17:26:49;;;;;;;7.50;3.17;;;;;;;17.85;39.49;99647.66;7581269;33;40204;-73
2022/09/24 17:31:07;;;;;;;3.90;2.45;;;;;;;18.01;39.30;99640.56;7590012;32;40852;-72
2022/09/24 17:35:24;;;;;;;6.05;2.87;;;;;;;18.32;38.87;99639.53;7606652;32;38767;-71
2022/09/24 17:39:40;;;;;;;7.05;3.05;;;;;;;18.14;39.13;99648.97;7606961;32;37094;-72
2022/09/24 17:43:59;;;;;;;5.97;2.92;;;;;;;18.31;38.70;99650.91;7606769;32;37893;-73
2022/09/24 17:48:15;;;;;;;6.85;3.20;;;;;;;18.02;39.24;99650.47;7606819;32;40030;-73
2022/09/24 17:52:32;;;;;;;4.32;2.62;;;;;;;17.78;40.13;99652.84;7606483;32;38770;-73
2022/09/24 17:56:48;;;;;;;6.95;3.25;;;;;;;17.81;40.23;99652.19;7589940;32;37900;-73
2022/09/24 18:01:10;;;;;;;8.13;3.40;;;;;;;18.11;39.66;99644.94;7580512;33;39414;-73
2022/09/24 18:05:26;;;;;;;5.45;2.72;;;;;;;17.78;40.67;99655.59;7571043;32;342216;-73
2022/09/24 18:09:42;;;;;;;6.82;2.83;;;;;;;18.07;39.80;99657.72;7606095;32;37997;-73
2022/09/24 18:14:01;;;;;;;4.68;2.90;;;;;;;18.07;39.80;99651.41;7606420;32;37899;-73
2022/09/24 18:18:17;;;;;;;7.40;3.40;;;;;;;18.10;39.85;99648.00;7606441;32;38376;-73
2022/09/24 18:22:33;;;;;;;3.95;2.60;;;;;;;17.65;41.05;99649.09;7583203;32;40493;-73
2022/09/24 18:26:51;;;;;;;5.85;3.08;;;;;;;17.99;40.53;99642.03;7587744;32;37669;-72
2022/09/24 18:31:09;;;;;;;6.90;2.87;;;;;;;17.54;41.32;99662.41;7606227;32;37586;-72
2022/09/24 18:35:25;;;;;;;7.37;3.72;;;;;;;17.80;40.89;99656.09;7606006;32;39329;-71
2022/09/24 18:39:41;;;;;;;5.78;3.25;;;;;;;17.63;42.51;99662.41;7597003;32;39035;-73
2022/09/24 18:43:58;;;;;;;7.75;3.53;;;;;;;17.76;42.15;99661.44;7588413;32;37591;-73
2022/09/24 18:48:14;;;;;;;7.87;3.58;;;;;;;17.69;41.48;99660.28;7594592;32;37231;-73
2022/09/24 18:52:31;;;;;;;7.62;3.90;;;;;;;17.47;42.23;99653.75;7596545;32;40024;-74
2022/09/24 18:56:48;;;;;;;6.37;3.00;;;;;;;17.50;42.15;99655.88;7580673;32;39636;-73
2022/09/24 19:01:08;;;;;;;7.30;3.80;;;;;;;17.70;41.83;99661.94;7598578;32;37782;-73
2022/09/24 19:05:25;;;;;;;8.30;3.53;;;;;;;17.71;41.64;99663.53;7589109;32;37956;-72
2022/09/24 19:09:41;;;;;;;8.60;3.92;;;;;;;17.55;41.98;99666.75;7605183;32;40242;-73
2022/09/24 19:13:57;;;;;;;6.25;3.58;;;;;;;17.79;41.85;99668.25;7592766;32;40456;-74
2022/09/24 19:18:17;;;;;;;5.22;3.33;;;;;;;17.57;42.48;99664.47;7579493;33;37547;-73
2022/09/24 19:22:33;;;;;;;8.27;3.25;;;;;;;18.05;41.41;99664.72;7590182;32;35725;-73
2022/09/24 19:26:50;;;;;;;6.57;3.78;;;;;;;17.87;41.79;99661.97;7579308;33;40212;-74
2022/09/24 19:31:15;;;;;;;8.02;3.50;;;;;;;17.71;42.11;99660.78;7583590;32;39940;-74
2022/09/24 19:35:34;;;;;;;9.35;3.92;;;;;;;17.82;42.10;99649.13;7602176;32;37952;-74
2022/09/24 19:39:51;;;;;;;6.87;3.55;;;;;;;17.57;42.51;99658.97;7604683;32;35751;-74
2022/09/24 19:44:07;;;;;;;7.07;3.53;;;;;;;17.63;42.25;99649.44;7589665;32;40129;-74
2022/09/24 19:48:28;;;;;;;7.05;3.53;;;;;;;17.58;42.40;99644.06;7597221;32;40791;-73
2022/09/24 19:52:47;;;;;;;8.73;4.07;;;;;;;17.54;42.46;99645.03;7577288;32;37989;-74
2022/09/24 19:57:03;;;;;;;10.20;4.15;;;;;;;17.62;42.53;99645.03;7589907;32;36484;-74
2022/09/24 20:01:28;;;;;;;7.75;4.00;;;;;;;17.54;42.66;99645.84;7588241;32;39257;-73
2022/09/24 20:05:45;;;;;;;8.13;4.45;;;;;;;17.46;43.07;99647.44;7592849;32;39748;-72
2022/09/24 20:10:01;;;;;;;7.95;4.43;;;;;;;17.21;43.87;99654.53;7580581;32;38442;-72
2022/09/24 20:14:20;;;;;;;13.40;5.20;;;;;;;17.33;43.78;99653.09;7587982;32;36923;-73
2022/09/24 20:18:36;;;;;;;8.38;4.20;;;;;;;17.05;44.20;99645.06;7577666;32;39524;-74
2022/09/24 20:22:52;;;;;;;10.15;4.90;;;;;;;17.25;43.61;99647.25;7584962;32;40034;-73
2022/09/24 20:31:50;;;;;;;10.05;4.72;;;;;;;17.04;44.07;99643.44;7588172;32;37195;-74
2022/09/24 20:36:09;;;;;;;12.57;4.72;;;;;;;16.88;44.34;99643.06;7594062;32;40317;-75
2022/09/24 20:40:31;;;;;;;10.82;4.90;;;;;;;16.94;44.10;99643.75;7589749;32;39956;-74
2022/09/24 20:44:48;;;;;;;11.23;4.85;;;;;;;16.81;44.43;99640.72;7578010;33;39269;-74
2022/09/24 20:49:04;;;;;;;9.65;4.65;;;;;;;17.12;43.63;99641.84;7589063;32;38404;-75
2022/09/24 20:53:20;;;;;;;9.82;5.07;;;;;;;16.87;44.22;99644.19;7578042;33;40157;-75
2022/09/24 20:57:36;;;;;;;9.60;4.85;;;;;;;17.13;43.71;99654.50;7579712;33;39695;-75